Observations for Trim Market St
| Time | AQI | Temp °C | Hum % | Pres Pa | CO μg/m³ | H₂S μg/m³ | NO μg/m³ | NO₂ μg/m³ | O₃ μg/m³ | SO₂ μg/m³ | PM1 μg/m³ | PM2.5 μg/m³ | PM10 μg/m³ |
|---|---|---|---|---|---|---|---|---|---|---|---|---|---|
| Saturday 22 August 2026 | |||||||||||||
| 01:43 | 2 | 11.5 | 74 | 54,685 | 0.47 | 0 | 3.56 | 10.2 | 40.43 | 0 | 2.14 | 3.84 | 6.32 |
| 01:35 | 2 | 11.3 | 74 | 54,260 | 0.45 | 0 | 4.03 | 9.62 | 40.55 | 0 | 1.43 | 2.87 | 5.12 |
| 01:34 | 2 | 11.3 | 74 | 54,167 | 0.44 | 0 | 4.03 | 9.27 | 40.23 | 0 | 2.14 | 3.83 | 8.13 |
| 01:33 | 2 | 11.3 | 74 | 54,081 | 0.44 | 0 | 4.06 | 9.29 | 44.57 | 0 | 2.14 | 3.34 | 5.72 |
| 01:32 | 2 | 11.3 | 74 | 53,993 | 0.44 | 0 | 3.45 | 9.64 | 39.89 | 0 | 2.14 | 2.86 | 5.12 |
| 01:31 | 2 | 11.2 | 74 | 53,920 | 0.45 | 0 | 3.44 | 8.71 | 40.91 | 0 | 1.43 | 3.34 | 6.33 |
| 01:30 | 2 | 11.2 | 74 | 53,839 | 0.45 | 0 | 3.42 | 9.06 | 40.71 | 0 | 1.43 | 2.86 | 5.12 |
| 01:29 | 2 | 11.2 | 74 | 53,776 | 0.44 | 0 | 3.7 | 10.54 | 37.97 | 0 | 1.43 | 3.34 | 5.73 |
| 01:28 | 2 | 11.2 | 74 | 53,715 | 0.43 | 0 | 4.18 | 9.24 | 38.84 | 0 | 1.43 | 3.34 | 6.33 |
| 01:27 | 2 | 11.2 | 74 | 53,650 | 0.45 | 0 | 5.65 | 9.27 | 39.82 | 0 | 1.43 | 2.85 | 5.13 |
| 01:26 | 2 | 11.2 | 74 | 53,573 | 0.44 | 0 | 5.18 | 12.68 | 34.5 | 0 | 1.43 | 2.85 | 5.73 |
| 01:25 | 2 | 11.2 | 74 | 53,511 | 0.47 | 0 | 4.78 | 15.62 | 28.33 | 0 | 1.43 | 3.33 | 5.73 |
| 01:24 | 2 | 11.2 | 74 | 53,437 | 0.49 | 0 | 4.8 | 13.98 | 30.65 | 0 | 1.43 | 2.37 | 4.53 |
| 01:23 | 2 | 11.2 | 74 | 53,362 | 0.45 | 0 | 3.95 | 10.81 | 36.65 | 0 | 1.43 | 3.33 | 5.73 |
| 01:22 | 2 | 11.2 | 74 | 53,271 | 0.48 | 0 | 3.39 | 10.81 | 40.57 | 0 | 1.43 | 2.85 | 5.73 |
| 01:20 | 2 | 11.2 | 74 | 53,151 | 0.48 | 0 | 4.53 | 11.52 | 36.49 | 0 | 1.43 | 2.36 | 4.53 |
| 01:19 | 2 | 11.2 | 74 | 53,064 | 0.45 | 0 | 4.53 | 10.21 | 37.42 | 0 | 1.43 | 2.84 | 5.13 |
| 01:11 | 2 | 11.2 | 75 | 52,010 | 0.46 | 0 | 4.45 | 12.56 | 35.77 | 0 | 1.43 | 2.83 | 5.14 |
| 01:10 | 2 | 11.2 | 75 | 51,819 | 0.48 | 0 | 4.77 | 12.56 | 34.73 | 0 | 1.43 | 2.83 | 5.14 |
| 01:05 | 2 | 11.2 | 75 | 50,737 | 0.45 | 0 | 5.21 | 17.18 | 28.42 | 0 | 0.71 | 2.82 | 5.14 |